sensor_id;sensor_type;location;lat;lon;timestamp;pressure;altitude;pressure_sealevel;temperature;humidity
80164;BME280;70071;55.130;61.268;2024-01-30T00:01:44;99081.19;;;-0.96;45.08
80164;BME280;70071;55.130;61.268;2024-01-30T00:04:09;99093.16;;;-0.80;45.00
80164;BME280;70071;55.130;61.268;2024-01-30T00:06:35;99117.03;;;-0.62;44.55
80164;BME280;70071;55.130;61.268;2024-01-30T00:09:01;99089.34;;;-0.76;44.36
80164;BME280;70071;55.130;61.268;2024-01-30T00:11:27;99093.78;;;-0.65;44.33
80164;BME280;70071;55.130;61.268;2024-01-30T00:13:54;99104.75;;;-0.60;44.43
80164;BME280;70071;55.130;61.268;2024-01-30T00:16:24;99075.41;;;-0.75;44.17
80164;BME280;70071;55.130;61.268;2024-01-30T00:18:51;99107.72;;;-0.54;43.47
80164;BME280;70071;55.130;61.268;2024-01-30T00:21:18;99106.19;;;-0.56;43.60
80164;BME280;70071;55.130;61.268;2024-01-30T00:23:44;99092.84;;;-0.64;44.06
80164;BME280;70071;55.130;61.268;2024-01-30T00:26:10;99080.59;;;-0.75;43.36
80164;BME280;70071;55.130;61.268;2024-01-30T00:28:39;99090.88;;;-0.61;43.41
80164;BME280;70071;55.130;61.268;2024-01-30T00:31:05;99094.88;;;-0.68;44.07
80164;BME280;70071;55.130;61.268;2024-01-30T00:33:31;99048.16;;;-0.95;44.41
80164;BME280;70071;55.130;61.268;2024-01-30T00:35:56;99057.13;;;-0.99;44.89
80164;BME280;70071;55.130;61.268;2024-01-30T00:38:22;99057.25;;;-1.01;45.08
80164;BME280;70071;55.130;61.268;2024-01-30T00:40:48;99060.88;;;-0.91;44.77
80164;BME280;70071;55.130;61.268;2024-01-30T00:43:15;99092.59;;;-0.73;44.48
80164;BME280;70071;55.130;61.268;2024-01-30T00:45:43;99079.16;;;-0.79;44.46
80164;BME280;70071;55.130;61.268;2024-01-30T00:48:09;99095.09;;;-0.71;44.13
80164;BME280;70071;55.130;61.268;2024-01-30T00:50:35;99067.63;;;-0.88;44.23
80164;BME280;70071;55.130;61.268;2024-01-30T00:53:01;99084.69;;;-0.84;44.56
80164;BME280;70071;55.130;61.268;2024-01-30T00:55:27;99070.66;;;-0.94;44.54
80164;BME280;70071;55.130;61.268;2024-01-30T00:57:53;99056.63;;;-1.04;44.32
80164;BME280;70071;55.130;61.268;2024-01-30T01:00:19;99083.91;;;-0.97;45.04
80164;BME280;70071;55.130;61.268;2024-01-30T01:02:46;99057.84;;;-1.21;44.21
80164;BME280;70071;55.130;61.268;2024-01-30T01:05:13;99067.19;;;-1.19;45.08
80164;BME280;70071;55.130;61.268;2024-01-30T01:07:39;99057.72;;;-1.20;44.47
80164;BME280;70071;55.130;61.268;2024-01-30T01:10:06;99081.72;;;-1.03;44.93
80164;BME280;70071;55.130;61.268;2024-01-30T01:12:32;99072.97;;;-1.02;43.98
80164;BME280;70071;55.130;61.268;2024-01-30T01:14:58;99039.63;;;-1.34;45.55
80164;BME280;70071;55.130;61.268;2024-01-30T01:17:24;99041.84;;;-1.41;45.65
80164;BME280;70071;55.130;61.268;2024-01-30T01:19:50;99043.34;;;-1.26;45.77
80164;BME280;70071;55.130;61.268;2024-01-30T01:22:16;99046.91;;;-1.27;45.72
80164;BME280;70071;55.130;61.268;2024-01-30T01:24:44;99072.59;;;-1.09;44.88
80164;BME280;70071;55.130;61.268;2024-01-30T01:27:09;99044.34;;;-1.39;45.12
80164;BME280;70071;55.130;61.268;2024-01-30T01:29:36;99039.72;;;-1.36;45.93
80164;BME280;70071;55.130;61.268;2024-01-30T01:32:02;99041.78;;;-1.28;44.78
80164;BME280;70071;55.130;61.268;2024-01-30T01:34:28;99043.34;;;-1.26;45.16
80164;BME280;70071;55.130;61.268;2024-01-30T01:36:54;99073.63;;;-1.12;43.43
80164;BME280;70071;55.130;61.268;2024-01-30T01:39:22;99013.53;;;-1.46;43.81
80164;BME280;70071;55.130;61.268;2024-01-30T01:41:51;99073.03;;;-1.15;42.28
80164;BME280;70071;55.130;61.268;2024-01-30T01:44:18;99061.75;;;-1.16;43.30
80164;BME280;70071;55.130;61.268;2024-01-30T01:46:44;99058.34;;;-1.29;41.53
80164;BME280;70071;55.130;61.268;2024-01-30T01:49:10;99054.59;;;-1.25;41.47
80164;BME280;70071;55.130;61.268;2024-01-30T01:51:37;99040.56;;;-1.35;40.56
80164;BME280;70071;55.130;61.268;2024-01-30T01:54:05;99055.34;;;-1.23;40.40
80164;BME280;70071;55.130;61.268;2024-01-30T01:56:33;99035.66;;;-1.40;39.62
80164;BME280;70071;55.130;61.268;2024-01-30T01:59:06;99000.56;;;-1.71;40.13
80164;BME280;70071;55.130;61.268;2024-01-30T02:01:34;99015.22;;;-1.57;41.81
80164;BME280;70071;55.130;61.268;2024-01-30T02:04:00;99058.06;;;-1.37;41.49
80164;BME280;70071;55.130;61.268;2024-01-30T02:06:27;99026.22;;;-1.54;42.77
80164;BME280;70071;55.130;61.268;2024-01-30T02:08:53;99013.34;;;-1.68;42.66
80164;BME280;70071;55.130;61.268;2024-01-30T02:11:23;99036.22;;;-1.73;44.17
80164;BME280;70071;55.130;61.268;2024-01-30T02:13:50;99051.53;;;-1.94;45.57
80164;BME280;70071;55.130;61.268;2024-01-30T02:16:17;99049.13;;;-1.98;46.29
80164;BME280;70071;55.130;61.268;2024-01-30T02:18:43;99016.06;;;-2.08;46.12
80164;BME280;70071;55.130;61.268;2024-01-30T02:21:28;98976.44;;;-2.12;46.01
80164;BME280;70071;55.130;61.268;2024-01-30T02:23:54;99031.97;;;-1.87;46.12
80164;BME280;70071;55.130;61.268;2024-01-30T02:26:21;99007.44;;;-2.09;45.87
80164;BME280;70071;55.130;61.268;2024-01-30T02:28:46;99026.25;;;-2.05;46.31
80164;BME280;70071;55.130;61.268;2024-01-30T02:31:12;98969.66;;;-2.53;46.76
80164;BME280;70071;55.130;61.268;2024-01-30T02:33:38;99031.56;;;-2.20;46.92
80164;BME280;70071;55.130;61.268;2024-01-30T02:36:04;99038.28;;;-2.30;47.28
80164;BME280;70071;55.130;61.268;2024-01-30T02:38:31;99015.59;;;-2.41;47.09
80164;BME280;70071;55.130;61.268;2024-01-30T02:40:56;98989.88;;;-2.58;47.58
80164;BME280;70071;55.130;61.268;2024-01-30T02:43:23;98989.59;;;-2.54;47.71
80164;BME280;70071;55.130;61.268;2024-01-30T02:45:48;99011.44;;;-2.43;47.12
80164;BME280;70071;55.130;61.268;2024-01-30T02:48:14;98994.25;;;-2.59;47.20
80164;BME280;70071;55.130;61.268;2024-01-30T02:50:40;98996.34;;;-2.51;47.53
80164;BME280;70071;55.130;61.268;2024-01-30T02:53:06;99024.50;;;-2.58;47.45
80164;BME280;70071;55.130;61.268;2024-01-30T02:55:33;99017.81;;;-2.75;48.26
80164;BME280;70071;55.130;61.268;2024-01-30T02:57:59;98986.69;;;-2.89;48.17
80164;BME280;70071;55.130;61.268;2024-01-30T03:00:25;98970.53;;;-3.07;48.29
80164;BME280;70071;55.130;61.268;2024-01-30T03:02:51;98997.72;;;-3.13;49.39
80164;BME280;70071;55.130;61.268;2024-01-30T03:05:16;98986.56;;;-3.28;49.33
80164;BME280;70071;55.130;61.268;2024-01-30T03:07:43;99030.59;;;-2.99;49.31
80164;BME280;70071;55.130;61.268;2024-01-30T03:10:09;98986.28;;;-3.23;49.48
80164;BME280;70071;55.130;61.268;2024-01-30T03:12:35;99009.38;;;-3.06;49.20
80164;BME280;70071;55.130;61.268;2024-01-30T03:15:01;99007.78;;;-2.94;49.53
80164;BME280;70071;55.130;61.268;2024-01-30T03:17:30;98994.41;;;-3.15;48.72
80164;BME280;70071;55.130;61.268;2024-01-30T03:19:56;99020.63;;;-3.05;49.15
80164;BME280;70071;55.130;61.268;2024-01-30T03:22:22;99001.44;;;-3.17;49.01
80164;BME280;70071;55.130;61.268;2024-01-30T03:24:48;99008.38;;;-4.61;53.28
80164;BME280;70071;55.130;61.268;2024-01-30T03:27:14;98986.41;;;-5.01;53.80
80164;BME280;70071;55.130;61.268;2024-01-30T03:29:40;98997.22;;;-4.94;54.21
80164;BME280;70071;55.130;61.268;2024-01-30T03:32:06;98927.47;;;-5.42;54.34
80164;BME280;70071;55.130;61.268;2024-01-30T03:34:31;98974.06;;;-5.27;55.41
80164;BME280;70071;55.130;61.268;2024-01-30T03:36:57;98983.50;;;-5.42;56.01
80164;BME280;70071;55.130;61.268;2024-01-30T03:39:23;98973.84;;;-5.39;55.05
80164;BME280;70071;55.130;61.268;2024-01-30T03:41:49;98987.69;;;-5.40;55.41
80164;BME280;70071;55.130;61.268;2024-01-30T03:44:15;98990.84;;;-5.19;55.17
80164;BME280;70071;55.130;61.268;2024-01-30T03:46:41;98954.25;;;-5.27;54.78
80164;BME280;70071;55.130;61.268;2024-01-30T03:49:07;98989.72;;;-4.98;54.23
80164;BME280;70071;55.130;61.268;2024-01-30T03:51:33;98995.88;;;-4.85;54.22
80164;BME280;70071;55.130;61.268;2024-01-30T03:53:58;98965.34;;;-4.94;53.02
80164;BME280;70071;55.130;61.268;2024-01-30T03:56:24;98986.44;;;-4.86;52.61
80164;BME280;70071;55.130;61.268;2024-01-30T03:58:51;98958.94;;;-5.03;53.55
80164;BME280;70071;55.130;61.268;2024-01-30T04:01:17;98916.25;;;-5.26;52.88
80164;BME280;70071;55.130;61.268;2024-01-30T04:03:43;98942.88;;;-4.94;52.00
80164;BME280;70071;55.130;61.268;2024-01-30T04:06:10;98959.19;;;-4.92;52.01
80164;BME280;70071;55.130;61.268;2024-01-30T04:08:37;98926.97;;;-5.02;51.68
80164;BME280;70071;55.130;61.268;2024-01-30T04:11:07;98932.72;;;-4.97;51.24
80164;BME280;70071;55.130;61.268;2024-01-30T04:13:33;98958.94;;;-4.73;51.16
80164;BME280;70071;55.130;61.268;2024-01-30T04:16:00;98946.72;;;-4.85;51.04
80164;BME280;70071;55.130;61.268;2024-01-30T04:18:29;98953.84;;;-4.74;50.21
80164;BME280;70071;55.130;61.268;2024-01-30T04:20:56;98907.97;;;-4.87;50.64
80164;BME280;70071;55.130;61.268;2024-01-30T04:23:22;98898.25;;;-4.97;50.89
80164;BME280;70071;55.130;61.268;2024-01-30T04:25:48;98946.59;;;-3.25;48.65
80164;BME280;70071;55.130;61.268;2024-01-30T04:28:14;98918.78;;;-2.83;46.41
80164;BME280;70071;55.130;61.268;2024-01-30T04:30:40;98922.03;;;-2.54;45.73
80164;BME280;70071;55.130;61.268;2024-01-30T04:33:06;98928.16;;;-2.80;46.17
80164;BME280;70071;55.130;61.268;2024-01-30T04:35:32;98952.91;;;-2.62;46.04
80164;BME280;70071;55.130;61.268;2024-01-30T04:37:58;98910.50;;;-2.75;46.26
80164;BME280;70071;55.130;61.268;2024-01-30T04:40:24;98924.75;;;-2.55;45.71
80164;BME280;70071;55.130;61.268;2024-01-30T04:42:50;98926.94;;;-2.49;45.79
80164;BME280;70071;55.130;61.268;2024-01-30T04:45:16;98894.41;;;-2.68;45.73
80164;BME280;70071;55.130;61.268;2024-01-30T04:47:42;98919.13;;;-2.49;45.70
80164;BME280;70071;55.130;61.268;2024-01-30T04:50:09;98875.41;;;-2.68;45.32
80164;BME280;70071;55.130;61.268;2024-01-30T04:52:36;98927.38;;;-2.42;45.75
80164;BME280;70071;55.130;61.268;2024-01-30T04:55:02;98913.31;;;-2.53;45.46
80164;BME280;70071;55.130;61.268;2024-01-30T04:57:31;98880.78;;;-2.58;45.84
80164;BME280;70071;55.130;61.268;2024-01-30T04:59:59;98901.06;;;-2.38;45.75
80164;BME280;70071;55.130;61.268;2024-01-30T05:02:25;98887.03;;;-2.48;45.87
80164;BME280;70071;55.130;61.268;2024-01-30T05:04:51;98919.66;;;-2.44;45.58
80164;BME280;70071;55.130;61.268;2024-01-30T05:07:17;98901.16;;;-2.65;45.51
80164;BME280;70071;55.130;61.268;2024-01-30T05:09:43;98920.28;;;-2.53;46.21
80164;BME280;70071;55.130;61.268;2024-01-30T05:12:09;98897.41;;;-2.48;46.15
80164;BME280;70071;55.130;61.268;2024-01-30T05:14:35;98906.06;;;-2.35;46.43
80164;BME280;70071;55.130;61.268;2024-01-30T05:17:01;98893.78;;;-2.20;46.03
80164;BME280;70071;55.130;61.268;2024-01-30T05:19:28;98911.13;;;-2.07;46.21
80164;BME280;70071;55.130;61.268;2024-01-30T05:21:54;98882.53;;;-2.20;46.17
80164;BME280;70071;55.130;61.268;2024-01-30T05:24:20;98900.34;;;-2.14;46.44
80164;BME280;70071;55.130;61.268;2024-01-30T05:26:46;98879.31;;;-2.24;45.88
80164;BME280;70071;55.130;61.268;2024-01-30T05:29:14;98880.97;;;-2.10;45.80
80164;BME280;70071;55.130;61.268;2024-01-30T05:31:40;98849.91;;;-2.24;46.08
80164;BME280;70071;55.130;61.268;2024-01-30T05:34:05;98845.19;;;-2.06;46.11
80164;BME280;70071;55.130;61.268;2024-01-30T05:36:32;98821.59;;;-2.03;45.74
80164;BME280;70071;55.130;61.268;2024-01-30T05:38:58;98876.78;;;-1.63;45.86
80164;BME280;70071;55.130;61.268;2024-01-30T05:41:24;98837.16;;;-1.66;45.21
80164;BME280;70071;55.130;61.268;2024-01-30T05:43:53;98871.66;;;-1.51;45.73
80164;BME280;70071;55.130;61.268;2024-01-30T05:46:19;98843.06;;;-1.88;45.73
80164;BME280;70071;55.130;61.268;2024-01-30T05:48:45;98825.72;;;-2.01;45.81
80164;BME280;70071;55.130;61.268;2024-01-30T05:51:11;98829.06;;;-1.99;45.91
80164;BME280;70071;55.130;61.268;2024-01-30T05:56:21;98846.66;;;-1.78;45.59
80164;BME280;70071;55.130;61.268;2024-01-30T05:58:48;98831.72;;;-1.87;45.82
80164;BME280;70071;55.130;61.268;2024-01-30T06:01:32;98846.91;;;-1.57;45.56
80164;BME280;70071;55.130;61.268;2024-01-30T06:03:58;98842.50;;;-1.32;45.21
80164;BME280;70071;55.130;61.268;2024-01-30T06:06:24;98827.69;;;-1.43;44.95
80164;BME280;70071;55.130;61.268;2024-01-30T06:08:50;98808.91;;;-1.59;45.22
80164;BME280;70071;55.130;61.268;2024-01-30T06:11:16;98829.63;;;-1.58;44.83
80164;BME280;70071;55.130;61.268;2024-01-30T06:13:42;98816.34;;;-1.42;44.74
80164;BME280;70071;55.130;61.268;2024-01-30T06:16:11;98833.94;;;-1.21;44.39
80164;BME280;70071;55.130;61.268;2024-01-30T06:18:37;98820.28;;;-1.25;44.57
80164;BME280;70071;55.130;61.268;2024-01-30T06:21:04;98851.28;;;-0.98;44.04
80164;BME280;70071;55.130;61.268;2024-01-30T06:23:30;98806.91;;;-1.32;44.20
80164;BME280;70071;55.130;61.268;2024-01-30T06:25:56;98824.06;;;-1.29;44.03
80164;BME280;70071;55.130;61.268;2024-01-30T06:28:22;98802.59;;;-1.09;43.70
80164;BME280;70071;55.130;61.268;2024-01-30T06:30:48;98817.84;;;-1.15;44.33
80164;BME280;70071;55.130;61.268;2024-01-30T06:33:14;98809.97;;;-0.91;43.56
80164;BME280;70071;55.130;61.268;2024-01-30T06:35:40;98816.38;;;-0.95;43.58
80164;BME280;70071;55.130;61.268;2024-01-30T06:38:06;98819.44;;;-1.01;43.75
80164;BME280;70071;55.130;61.268;2024-01-30T06:40:32;98816.94;;;-0.92;43.47
80164;BME280;70071;55.130;61.268;2024-01-30T06:42:58;98815.53;;;-0.84;43.44
80164;BME280;70071;55.130;61.268;2024-01-30T06:45:24;98799.78;;;-0.94;43.24
80164;BME280;70071;55.130;61.268;2024-01-30T06:47:50;98815.53;;;-0.84;43.19
80164;BME280;70071;55.130;61.268;2024-01-30T06:50:16;98796.50;;;-0.74;43.38
80164;BME280;70071;55.130;61.268;2024-01-30T06:52:42;98767.47;;;-1.03;43.20
80164;BME280;70071;55.130;61.268;2024-01-30T06:55:08;98789.03;;;-0.67;42.59
80164;BME280;70071;55.130;61.268;2024-01-30T06:57:34;98769.72;;;-0.87;42.98
80164;BME280;70071;55.130;61.268;2024-01-30T07:00:00;98799.31;;;-0.65;43.33
80164;BME280;70071;55.130;61.268;2024-01-30T07:02:26;98781.69;;;-0.84;43.08
80164;BME280;70071;55.130;61.268;2024-01-30T07:04:52;98759.28;;;-0.87;43.13
80164;BME280;70071;55.130;61.268;2024-01-30T07:07:18;98769.97;;;-0.67;43.06
80164;BME280;70071;55.130;61.268;2024-01-30T07:09:44;98763.44;;;-0.84;43.22
80164;BME280;70071;55.130;61.268;2024-01-30T07:12:10;98772.44;;;-0.32;42.18
80164;BME280;70071;55.130;61.268;2024-01-30T07:14:36;98750.88;;;-0.34;41.72
80164;BME280;70071;55.130;61.268;2024-01-30T07:17:02;98762.34;;;-0.37;41.57
80164;BME280;70071;55.130;61.268;2024-01-30T07:19:28;98765.69;;;-0.34;42.03
80164;BME280;70071;55.130;61.268;2024-01-30T07:21:54;98762.53;;;-0.61;42.47
80164;BME280;70071;55.130;61.268;2024-01-30T07:24:20;98745.06;;;-0.38;42.80
80164;BME280;70071;55.130;61.268;2024-01-30T07:26:46;98753.50;;;-0.45;42.40
80164;BME280;70071;55.130;61.268;2024-01-30T07:29:12;98782.13;;;-0.11;42.21
80164;BME280;70071;55.130;61.268;2024-01-30T07:31:38;98759.59;;;-0.01;41.68
80164;BME280;70071;55.130;61.268;2024-01-30T07:34:03;98753.56;;;-0.13;41.78
80164;BME280;70071;55.130;61.268;2024-01-30T07:36:29;98760.38;;;0.11;41.62
80164;BME280;70071;55.130;61.268;2024-01-30T07:38:55;98714.25;;;0.11;41.62
80164;BME280;70071;55.130;61.268;2024-01-30T07:41:21;98725.84;;;0.19;41.20
80164;BME280;70071;55.130;61.268;2024-01-30T07:43:48;98742.88;;;0.02;41.79
80164;BME280;70071;55.130;61.268;2024-01-30T07:46:14;98699.50;;;-0.11;41.59
80164;BME280;70071;55.130;61.268;2024-01-30T07:48:40;98723.19;;;-0.03;41.92
80164;BME280;70071;55.130;61.268;2024-01-30T07:51:06;98692.50;;;-0.10;41.48
80164;BME280;70071;55.130;61.268;2024-01-30T07:53:32;98699.59;;;-0.01;41.30
80164;BME280;70071;55.130;61.268;2024-01-30T07:56:20;98725.25;;;0.15;41.28
80164;BME280;70071;55.130;61.268;2024-01-30T07:58:46;98740.59;;;0.08;42.01
80164;BME280;70071;55.130;61.268;2024-01-30T08:01:12;98714.06;;;-0.08;41.89
80164;BME280;70071;55.130;61.268;2024-01-30T08:03:38;98714.88;;;-0.08;41.66
80164;BME280;70071;55.130;61.268;2024-01-30T08:06:06;98718.72;;;0.21;42.01
80164;BME280;70071;55.130;61.268;2024-01-30T08:08:34;98742.88;;;0.23;42.81
80164;BME280;70071;55.130;61.268;2024-01-30T08:11:00;98715.00;;;-0.09;42.09
80164;BME280;70071;55.130;61.268;2024-01-30T08:13:26;98713.94;;;0.05;42.14
80164;BME280;70071;55.130;61.268;2024-01-30T08:15:52;98722.88;;;0.12;42.32
80164;BME280;70071;55.130;61.268;2024-01-30T08:18:18;98714.88;;;0.04;42.68
80164;BME280;70071;55.130;61.268;2024-01-30T08:20:44;98711.25;;;0.16;41.93
80164;BME280;70071;55.130;61.268;2024-01-30T08:23:10;98732.75;;;0.08;42.07
80164;BME280;70071;55.130;61.268;2024-01-30T08:25:36;98689.34;;;-0.25;42.69
80164;BME280;70071;55.130;61.268;2024-01-30T08:28:03;98693.00;;;0.16;42.34
80164;BME280;70071;55.130;61.268;2024-01-30T08:30:29;98714.97;;;0.34;42.49
80164;BME280;70071;55.130;61.268;2024-01-30T08:32:55;98698.13;;;0.39;41.92
80164;BME280;70071;55.130;61.268;2024-01-30T08:35:22;98679.38;;;0.12;41.94
80164;BME280;70071;55.130;61.268;2024-01-30T08:37:48;98665.63;;;-0.22;42.18
80164;BME280;70071;55.130;61.268;2024-01-30T08:40:13;98679.25;;;0.14;42.51
80164;BME280;70071;55.130;61.268;2024-01-30T08:42:39;98684.69;;;0.43;41.81
80164;BME280;70071;55.130;61.268;2024-01-30T08:45:06;98699.75;;;0.19;42.07
80164;BME280;70071;55.130;61.268;2024-01-30T08:47:32;98662.84;;;0.23;41.50
80164;BME280;70071;55.130;61.268;2024-01-30T08:49:58;98684.41;;;0.88;40.93
80164;BME280;70071;55.130;61.268;2024-01-30T08:52:25;98659.28;;;0.97;40.38
80164;BME280;70071;55.130;61.268;2024-01-30T08:54:50;98615.94;;;0.95;39.72
80164;BME280;70071;55.130;61.268;2024-01-30T08:57:16;98659.13;;;0.68;40.80
80164;BME280;70071;55.130;61.268;2024-01-30T08:59:42;98648.25;;;1.34;40.24
80164;BME280;70071;55.130;61.268;2024-01-30T09:02:11;98638.34;;;1.28;39.89
80164;BME280;70071;55.130;61.268;2024-01-30T09:04:39;98646.66;;;1.12;39.83
80164;BME280;70071;55.130;61.268;2024-01-30T09:07:05;98601.47;;;1.41;39.52
80164;BME280;70071;55.130;61.268;2024-01-30T09:09:34;98609.19;;;1.62;38.94
80164;BME280;70071;55.130;61.268;2024-01-30T09:12:00;98611.81;;;2.01;38.59
80164;BME280;70071;55.130;61.268;2024-01-30T09:14:32;98616.78;;;1.85;38.43
80164;BME280;70071;55.130;61.268;2024-01-30T09:16:58;98635.09;;;1.75;38.99
80164;BME280;70071;55.130;61.268;2024-01-30T09:19:24;98625.59;;;2.03;38.24
80164;BME280;70071;55.130;61.268;2024-01-30T09:21:50;98614.81;;;2.26;38.52
80164;BME280;70071;55.130;61.268;2024-01-30T09:24:16;98579.09;;;2.44;37.90
80164;BME280;70071;55.130;61.268;2024-01-30T09:26:42;98608.69;;;2.64;37.43
80164;BME280;70071;55.130;61.268;2024-01-30T09:29:08;98601.44;;;2.76;37.15
80164;BME280;70071;55.130;61.268;2024-01-30T09:31:34;98568.25;;;2.67;36.67
80164;BME280;70071;55.130;61.268;2024-01-30T09:34:00;98592.28;;;1.37;39.25
80164;BME280;70071;55.130;61.268;2024-01-30T09:36:26;98582.00;;;1.04;40.74
80164;BME280;70071;55.130;61.268;2024-01-30T09:38:53;98564.44;;;0.66;40.76
80164;BME280;70071;55.130;61.268;2024-01-30T09:41:19;98586.72;;;1.20;40.48
80164;BME280;70071;55.130;61.268;2024-01-30T09:43:47;98588.63;;;1.18;40.57
80164;BME280;70071;55.130;61.268;2024-01-30T09:46:17;98549.16;;;1.02;40.88
80164;BME280;70071;55.130;61.268;2024-01-30T09:48:46;98564.59;;;1.34;40.46
80164;BME280;70071;55.130;61.268;2024-01-30T09:51:14;98548.38;;;1.40;40.36
80164;BME280;70071;55.130;61.268;2024-01-30T09:53:41;98572.06;;;1.78;40.10
80164;BME280;70071;55.130;61.268;2024-01-30T09:56:08;98537.63;;;1.83;39.24
80164;BME280;70071;55.130;61.268;2024-01-30T09:58:34;98512.59;;;1.70;39.78
80164;BME280;70071;55.130;61.268;2024-01-30T10:01:00;98516.56;;;1.84;39.01
80164;BME280;70071;55.130;61.268;2024-01-30T10:03:26;98533.00;;;2.14;38.66
80164;BME280;70071;55.130;61.268;2024-01-30T10:05:52;98521.47;;;2.44;37.75
80164;BME280;70071;55.130;61.268;2024-01-30T10:08:19;98542.78;;;2.59;38.43
80164;BME280;70071;55.130;61.268;2024-01-30T10:10:49;98507.41;;;2.45;37.51
80164;BME280;70071;55.130;61.268;2024-01-30T10:13:16;98536.94;;;2.75;37.19
80164;BME280;70071;55.130;61.268;2024-01-30T10:15:42;98517.13;;;2.63;37.84
80164;BME280;70071;55.130;61.268;2024-01-30T10:18:08;98544.28;;;2.90;37.27
80164;BME280;70071;55.130;61.268;2024-01-30T10:20:36;98517.50;;;2.96;36.85
80164;BME280;70071;55.130;61.268;2024-01-30T10:23:03;98541.06;;;3.24;36.58
80164;BME280;70071;55.130;61.268;2024-01-30T10:25:32;98541.31;;;3.48;36.00
80164;BME280;70071;55.130;61.268;2024-01-30T10:27:59;98543.56;;;3.43;35.75
80164;BME280;70071;55.130;61.268;2024-01-30T10:30:26;98497.53;;;3.13;35.40
80164;BME280;70071;55.130;61.268;2024-01-30T10:32:53;98527.59;;;3.54;35.56
80164;BME280;70071;55.130;61.268;2024-01-30T10:35:19;98486.00;;;3.42;35.03
80164;BME280;70071;55.130;61.268;2024-01-30T10:37:49;98509.13;;;3.64;35.47
80164;BME280;70071;55.130;61.268;2024-01-30T10:40:15;98498.91;;;3.79;34.55
80164;BME280;70071;55.130;61.268;2024-01-30T10:42:43;98478.03;;;3.51;34.90
80164;BME280;70071;55.130;61.268;2024-01-30T10:45:11;98501.34;;;3.99;34.21
80164;BME280;70071;55.130;61.268;2024-01-30T10:47:55;98517.66;;;4.11;34.01
80164;BME280;70071;55.130;61.268;2024-01-30T10:50:27;98461.25;;;4.15;33.33
80164;BME280;70071;55.130;61.268;2024-01-30T10:52:55;98509.38;;;4.58;32.94
80164;BME280;70071;55.130;61.268;2024-01-30T10:55:23;98491.94;;;4.49;32.48
80164;BME280;70071;55.130;61.268;2024-01-30T10:57:50;98488.50;;;4.56;31.85
80164;BME280;70071;55.130;61.268;2024-01-30T11:00:16;98478.63;;;4.42;31.77
80164;BME280;70071;55.130;61.268;2024-01-30T11:02:46;98501.00;;;4.54;32.29
80164;BME280;70071;55.130;61.268;2024-01-30T11:05:13;98452.13;;;4.27;31.60
80164;BME280;70071;55.130;61.268;2024-01-30T11:07:41;98478.31;;;4.19;31.52
80164;BME280;70071;55.130;61.268;2024-01-30T11:10:07;98470.19;;;3.78;32.21
80164;BME280;70071;55.130;61.268;2024-01-30T11:12:39;98504.88;;;4.16;31.86
80164;BME280;70071;55.130;61.268;2024-01-30T11:15:11;98494.22;;;4.17;32.43
80164;BME280;70071;55.130;61.268;2024-01-30T11:20:10;98500.00;;;4.21;32.56
80164;BME280;70071;55.130;61.268;2024-01-30T11:22:37;98482.69;;;3.58;33.40
80164;BME280;70071;55.130;61.268;2024-01-30T11:25:04;98490.25;;;3.61;33.47
80164;BME280;70071;55.130;61.268;2024-01-30T11:27:33;98501.50;;;3.71;33.09
80164;BME280;70071;55.130;61.268;2024-01-30T11:30:02;98490.84;;;3.54;33.38
80164;BME280;70071;55.130;61.268;2024-01-30T11:32:30;98491.59;;;3.65;33.51
80164;BME280;70071;55.130;61.268;2024-01-30T11:34:56;98435.06;;;3.08;33.69
80164;BME280;70071;55.130;61.268;2024-01-30T11:37:24;98498.13;;;3.43;34.07
80164;BME280;70071;55.130;61.268;2024-01-30T11:39:51;98455.75;;;3.11;34.62
80164;BME280;70071;55.130;61.268;2024-01-30T11:42:19;98455.88;;;3.10;34.02
80164;BME280;70071;55.130;61.268;2024-01-30T11:44:48;98469.78;;;2.74;34.57
80164;BME280;70071;55.130;61.268;2024-01-30T11:47:14;98461.47;;;2.79;34.79
80164;BME280;70071;55.130;61.268;2024-01-30T11:49:40;98454.28;;;2.63;35.40
80164;BME280;70071;55.130;61.268;2024-01-30T11:52:07;98432.72;;;2.41;35.07
80164;BME280;70071;55.130;61.268;2024-01-30T11:54:33;98439.53;;;2.34;36.23
80164;BME280;70071;55.130;61.268;2024-01-30T11:56:59;98428.31;;;2.14;36.22
80164;BME280;70071;55.130;61.268;2024-01-30T11:59:25;98427.03;;;1.90;36.49
80164;BME280;70071;55.130;61.268;2024-01-30T12:01:52;98445.38;;;1.81;36.69
80164;BME280;70071;55.130;61.268;2024-01-30T12:04:18;98417.44;;;1.81;36.60
80164;BME280;70071;55.130;61.268;2024-01-30T12:06:44;98440.84;;;1.73;37.30
80164;BME280;70071;55.130;61.268;2024-01-30T12:09:11;98426.84;;;1.54;37.15
80164;BME280;70071;55.130;61.268;2024-01-30T12:14:11;98378.75;;;1.18;37.60
80164;BME280;70071;55.130;61.268;2024-01-30T12:16:38;98416.28;;;1.17;37.54
80164;BME280;70071;55.130;61.268;2024-01-30T12:19:04;98407.34;;;2.70;35.89
80164;BME280;70071;55.130;61.268;2024-01-30T12:21:30;98435.72;;;3.72;33.90
80164;BME280;70071;55.130;61.268;2024-01-30T12:23:57;98419.31;;;3.97;32.42
80164;BME280;70071;55.130;61.268;2024-01-30T12:26:24;98434.47;;;4.11;32.34
80164;BME280;70071;55.130;61.268;2024-01-30T12:28:56;98424.50;;;4.15;32.95
80164;BME280;70071;55.130;61.268;2024-01-30T12:31:28;98407.22;;;4.12;32.34
80164;BME280;70071;55.130;61.268;2024-01-30T12:33:54;98422.19;;;4.12;32.50
80164;BME280;70071;55.130;61.268;2024-01-30T12:36:21;98418.22;;;4.16;33.02
80164;BME280;70071;55.130;61.268;2024-01-30T12:38:48;98383.69;;;3.94;32.64
80164;BME280;70071;55.130;61.268;2024-01-30T12:41:14;98389.31;;;3.73;32.88
80164;BME280;70071;55.130;61.268;2024-01-30T12:43:40;98378.66;;;3.74;32.69
80164;BME280;70071;55.130;61.268;2024-01-30T12:46:06;98373.31;;;3.58;32.57
80164;BME280;70071;55.130;61.268;2024-01-30T12:48:33;98369.16;;;3.47;32.71
80164;BME280;70071;55.130;61.268;2024-01-30T12:50:59;98404.97;;;3.83;32.69
80164;BME280;70071;55.130;61.268;2024-01-30T12:53:25;98376.78;;;3.59;32.72
80164;BME280;70071;55.130;61.268;2024-01-30T12:55:51;98364.78;;;3.30;32.87
80164;BME280;70071;55.130;61.268;2024-01-30T12:58:18;98393.03;;;3.18;33.78
80164;BME280;70071;55.130;61.268;2024-01-30T13:00:44;98391.50;;;3.33;33.81